ESSB/BMA METAR and TAF weather

Enter ICAO airport designator
Station Type Date Time Source
ESSB METAR 2020/07/07 09:50 UTC NOAA

ESSB 070950Z 26016KT 9999 FEW038 17/08 Q1003


Station Type Date Time Source
ESSB Decoded METAR 2020/07/07 09:50 UTC NOAA

Stockholm / Bromma, Sweden (ESSB) 59-21N 017-57E 14M
Jul 07, 2020 - 05:50 AM EDT / 2020.07.07 0950 UTC
Wind: from the W (260 degrees) at 18 MPH (16 KT):0
Visibility: greater than 7 mile(s):0
Sky conditions: mostly clear
Temperature: 62 F (17 C)
Dew Point: 46 F (8 C)
Relative Humidity: 55%
Pressure (altimeter): 29.62 in. Hg (1003 hPa)
ob: ESSB 070950Z 26016KT 9999 FEW038 17/08 Q1003
cycle: 10

Station Type Date Time Source
ESSB TAF 2017/03/27 06:35 UTC NOAA

TAF ESSB 270530Z 2706/2724 27008KT CAVOK
BECMG 2710/2713 29015G25KT

Example: see airport list